Terminal Aerodrome Forecast
Issued by NWS Billings, MT

Home | Current Version | Previous Version | Text Only | Print | Product List | Glossary On
Versions: 1 2 3 4 5 6 7 8 9 10 11 12 13 14 15
000
FTUS45 KBYZ 262339
TAFBIL
TAF
KBIL 262339Z 2700/2724 11004KT P6SM VCSH SCT100 BKN250
     FM270600 25008KT P6SM SCT100
     FM271500 27012KT P6SM BKN090
     FM271800 32015G25KT P6SM VCSH SCT070 BKN090=

USA.gov is the U.S. government's official web portal to all federal, state and local government web resources and services.